Map

Track Data

SID SEASON NUMBER BASIN SUBBASIN NAME ISO_TIME NATURE LAT LON WMO_WIND WMO_PRES WMO_AGENCY TRACK_TYPE DIST2LAND LANDFALL IFLAG USA_AGENCY USA_ATCF_ID USA_LAT USA_LON USA_RECORD USA_STATUS USA_WIND USA_PRES USA_SSHS USA_R34_NE USA_R34_SE USA_R34_SW USA_R34_NW USA_R50_NE USA_R50_SE USA_R50_SW USA_R50_NW USA_R64_NE USA_R64_SE USA_R64_SW USA_R64_NW USA_POCI USA_ROCI USA_RMW USA_EYE TOKYO_LAT TOKYO_LON TOKYO_GRADE TOKYO_WIND TOKYO_PRES TOKYO_R50_DIR TOKYO_R50_LONG TOKYO_R50_SHORT TOKYO_R30_DIR TOKYO_R30_LONG TOKYO_R30_SHORT TOKYO_LAND CMA_LAT CMA_LON CMA_CAT CMA_WIND CMA_PRES HKO_LAT HKO_LON HKO_CAT HKO_WIND HKO_PRES NEWDELHI_LAT NEWDELHI_LON NEWDELHI_GRADE NEWDELHI_WIND NEWDELHI_PRES NEWDELHI_CI NEWDELHI_DP NEWDELHI_POCI REUNION_LAT REUNION_LON REUNION_TYPE REUNION_WIND REUNION_PRES REUNION_TNUM REUNION_CI REUNION_RMW REUNION_R34_NE REUNION_R34_SE REUNION_R34_SW REUNION_R34_NW REUNION_R50_NE REUNION_R50_SE REUNION_R50_SW REUNION_R50_NW REUNION_R64_NE REUNION_R64_SE REUNION_R64_SW REUNION_R64_NW BOM_LAT BOM_LON BOM_TYPE BOM_WIND BOM_PRES BOM_TNUM BOM_CI BOM_RMW BOM_R34_NE BOM_R34_SE BOM_R34_SW BOM_R34_NW BOM_R50_NE BOM_R50_SE BOM_R50_SW BOM_R50_NW BOM_R64_NE BOM_R64_SE BOM_R64_SW BOM_R64_NW BOM_ROCI BOM_POCI BOM_EYE BOM_POS_METHOD BOM_PRES_METHOD NADI_LAT NADI_LON NADI_CAT NADI_WIND NADI_PRES WELLINGTON_LAT WELLINGTON_LON WELLINGTON_WIND WELLINGTON_PRES DS824_LAT DS824_LON DS824_STAGE DS824_WIND DS824_PRES TD9636_LAT TD9636_LON TD9636_STAGE TD9636_WIND TD9636_PRES TD9635_LAT TD9635_LON TD9635_WIND TD9635_PRES TD9635_ROCI NEUMANN_LAT NEUMANN_LON NEUMANN_CLASS NEUMANN_WIND NEUMANN_PRES MLC_LAT MLC_LON MLC_CLASS MLC_WIND MLC_PRES USA_GUST BOM_GUST BOM_GUST_PER REUNION_GUST REUNION_GUST_PER USA_SEAHGT USA_SEARAD_NE USA_SEARAD_SE USA_SEARAD_SW USA_SEARAD_NW STORM_SPEED STORM_DIR
1987222N26266 1987 55 NA GM NOT_NAMED 1987-08-09 12:00:00 TS 26.3000 -93.6000 30 1010 hurdat_atl main 340 281 O_____________ hurdat_atl AL031987 26.3000 -93.6000 TD 30 1010 -1 10 341
1987222N26266 1987 55 NA GM NOT_NAMED 1987-08-09 15:00:00 TS 26.7900 -93.7924 main 281 223 P_____________ AL031987 26.7900 -93.7924 TD 32 1009 -1 11 340
1987222N26266 1987 55 NA GM NOT_NAMED 1987-08-09 18:00:00 TS 27.3000 -94.0000 35 1008 hurdat_atl main 223 165 O_____________ hurdat_atl AL031987 27.3000 -94.0000 TS 35 1008 0 11 340
1987222N26266 1987 55 NA GM NOT_NAMED 1987-08-09 21:00:00 TS 27.8425 -94.2223 main 165 102 P_____________ AL031987 27.8425 -94.2223 TS 37 1008 0 12 342
1987222N26266 1987 55 NA GM NOT_NAMED 1987-08-10 00:00:00 TS 28.4000 -94.4000 40 1008 hurdat_atl main 102 59 O_____________ hurdat_atl AL031987 28.4000 -94.4000 TS 40 1008 0 11 348
1987222N26266 1987 55 NA GM NOT_NAMED 1987-08-10 03:00:00 TS 28.9574 -94.4803 main 51 9 P_____________ AL031987 28.9574 -94.4803 TS 40 1008 0 11 355
1987222N26266 1987 55 NA GM NOT_NAMED 1987-08-10 06:00:00 TS 29.5000 -94.5000 40 1009 hurdat_atl main 9 0 O_____________ hurdat_atl AL031987 29.5000 -94.5000 L TS 40 1009 0 11 357
1987222N26266 1987 55 NA NA NOT_NAMED 1987-08-10 09:00:00 TS 30.0224 -94.5372 main 0 0 P_____________ AL031987 30.0224 -94.5372 TS 40 1009 0 10 1
1987222N26266 1987 55 NA NA NOT_NAMED 1987-08-10 12:00:00 TS 30.5000 -94.5000 40 1009 hurdat_atl main 0 0 O_____________ hurdat_atl AL031987 30.5000 -94.5000 TS 40 1009 0 9 10
1987222N26266 1987 55 NA NA NOT_NAMED 1987-08-10 15:00:00 TS 30.9375 -94.3452 main 0 0 P_____________ AL031987 30.9375 -94.3452 TS 35 1009 0 9 23
1987222N26266 1987 55 NA NA NOT_NAMED 1987-08-10 18:00:00 TS 31.3000 -94.1000 30 1009 hurdat_atl main 0 0 O_____________ hurdat_atl AL031987 31.3000 -94.1000 TD 30 1009 -1 8 35
1987222N26266 1987 55 NA NA NOT_NAMED 1987-08-10 21:00:00 TS 31.5724 -93.8297 main 0 0 P_____________ AL031987 31.5724 -93.8297 TD 27 1009 -1 7 46
1987222N26266 1987 55 NA NA NOT_NAMED 1987-08-11 00:00:00 TS 31.8000 -93.5000 25 1009 hurdat_atl main 0 0 O_____________ hurdat_atl AL031987 31.8000 -93.5000 TD 25 1009 -1 8 49
1987222N26266 1987 55 NA NA NOT_NAMED 1987-08-11 03:00:00 TS 32.0874 -93.1229 main 0 0 P_____________ AL031987 32.0874 -93.1229 TD 25 1009 -1 8 54
1987222N26266 1987 55 NA NA NOT_NAMED 1987-08-11 06:00:00 TS 32.3000 -92.7000 25 1009 hurdat_atl main 0 0 O_____________ hurdat_atl AL031987 32.3000 -92.7000 TD 25 1009 -1 8 71
1987222N26266 1987 55 NA NA NOT_NAMED 1987-08-11 09:00:00 TS 32.3451 -92.2346 main 0 0 P_____________ AL031987 32.3451 -92.2346 TD 25 1008 -1 8 90
1987222N26266 1987 55 NA NA NOT_NAMED 1987-08-11 12:00:00 TS 32.3000 -91.8000 25 1008 hurdat_atl main 0 0 O_____________ hurdat_atl AL031987 32.3000 -91.8000 TD 25 1008 -1 6 98
1987222N26266 1987 55 NA NA NOT_NAMED 1987-08-11 15:00:00 TS 32.2572 -91.4775 main 0 0 P_____________ AL031987 32.2572 -91.4775 TD 25 1008 -1 5 101
1987222N26266 1987 55 NA NA NOT_NAMED 1987-08-11 18:00:00 TS 32.2000 -91.2000 25 1008 hurdat_atl main 0 0 O_____________ hurdat_atl AL031987 32.2000 -91.2000 TD 25 1008 -1 5 102
1987222N26266 1987 55 NA NA NOT_NAMED 1987-08-11 21:00:00 TS 32.1500 -90.8850 main 0 0 P_____________ AL031987 32.1500 -90.8850 TD 25 1007 -1 5 101
1987222N26266 1987 55 NA NA NOT_NAMED 1987-08-12 00:00:00 TS 32.1000 -90.6000 25 1007 hurdat_atl main 0 0 O_____________ hurdat_atl AL031987 32.1000 -90.6000 TD 25 1007 -1 4 105
1987222N26266 1987 55 NA NA NOT_NAMED 1987-08-12 03:00:00 TS 32.0423 -90.3925 main 0 0 P_____________ AL031987 32.0423 -90.3925 TD 25 1007 -1 4 107
1987222N26266 1987 55 NA NA NOT_NAMED 1987-08-12 06:00:00 TS 32.0000 -90.2000 25 1007 hurdat_atl main 0 0 O_____________ hurdat_atl AL031987 32.0000 -90.2000 TD 25 1007 -1 4 98
1987222N26266 1987 55 NA NA NOT_NAMED 1987-08-12 09:00:00 TS 31.9925 -89.9501 main 0 0 P_____________ AL031987 31.9925 -89.9501 TD 25 1007 -1 4 90
1987222N26266 1987 55 NA NA NOT_NAMED 1987-08-12 12:00:00 TS 32.0000 -89.7000 25 1007 hurdat_atl main 0 0 O_____________ hurdat_atl AL031987 32.0000 -89.7000 TD 25 1007 -1 4 88
1987222N26266 1987 55 NA NA NOT_NAMED 1987-08-12 15:00:00 TS 32.0074 -89.5001 main 0 0 P_____________ AL031987 32.0074 -89.5001 TD 22 1007 -1 3 90
1987222N26266 1987 55 NA NA NOT_NAMED 1987-08-12 18:00:00 TS 32.0000 -89.3000 20 1007 hurdat_atl main 0 0 O_____________ hurdat_atl AL031987 32.0000 -89.3000 TD 20 1007 -1 4 97
1987222N26266 1987 55 NA NA NOT_NAMED 1987-08-12 21:00:00 TS 31.9575 -89.0499 main 0 0 P_____________ AL031987 31.9575 -89.0499 TD 20 1007 -1 4 103
1987222N26266 1987 55 NA NA NOT_NAMED 1987-08-13 00:00:00 TS 31.9000 -88.8000 20 1008 hurdat_atl main 0 0 O_____________ hurdat_atl AL031987 31.9000 -88.8000 TD 20 1008 -1 4 106
1987222N26266 1987 55 NA NA NOT_NAMED 1987-08-13 03:00:00 TS 31.8499 -88.5925 main 0 0 P_____________ AL031987 31.8499 -88.5925 TD 20 1008 -1 4 106
1987222N26266 1987 55 NA NA NOT_NAMED 1987-08-13 06:00:00 TS 31.8000 -88.4000 20 1008 hurdat_atl main 0 0 O_____________ hurdat_atl AL031987 31.8000 -88.4000 TD 20 1008 -1 4 105
1987222N26266 1987 55 NA NA NOT_NAMED 1987-08-13 09:00:00 TS 31.7575 -88.1926 main 0 0 P_____________ AL031987 31.7575 -88.1926 TD 20 1008 -1 4 106
1987222N26266 1987 55 NA NA NOT_NAMED 1987-08-13 12:00:00 TS 31.7000 -88.0000 20 1009 hurdat_atl main 0 0 O_____________ hurdat_atl AL031987 31.7000 -88.0000 TD 20 1009 -1 3 117
1987222N26266 1987 55 NA NA NOT_NAMED 1987-08-13 15:00:00 TS 31.6075 -87.8425 main 0 0 P_____________ AL031987 31.6075 -87.8425 TD 17 1009 -1 3 128
1987222N26266 1987 55 NA NA NOT_NAMED 1987-08-13 18:00:00 TS 31.5000 -87.7000 15 1009 hurdat_atl main 0 0 O_____________ hurdat_atl AL031987 31.5000 -87.7000 TD 15 1009 -1 3 130
1987222N26266 1987 55 NA NA NOT_NAMED 1987-08-13 21:00:00 TS 31.4000 -87.5500 main 0 0 P_____________ AL031987 31.4000 -87.5500 TD 15 1009 -1 3 128
1987222N26266 1987 55 NA NA NOT_NAMED 1987-08-14 00:00:00 TS 31.3000 -87.4000 15 1010 hurdat_atl main 0 0 O_____________ hurdat_atl AL031987 31.3000 -87.4000 TD 15 1010 -1 3 127
1987222N26266 1987 55 NA NA NOT_NAMED 1987-08-14 03:00:00 TS 31.2075 -87.2501 main 0 0 P_____________ AL031987 31.2075 -87.2501 TD 15 1010 -1 3 128
1987222N26266 1987 55 NA NA NOT_NAMED 1987-08-14 06:00:00 TS 31.1000 -87.1000 15 1010 hurdat_atl main 0 0 O_____________ hurdat_atl AL031987 31.1000 -87.1000 TD 15 1010 -1 4 135
1987222N26266 1987 55 NA NA NOT_NAMED 1987-08-14 09:00:00 TS 30.9500 -86.9425 main 0 0 P_____________ AL031987 30.9500 -86.9425 TD 15 1010 -1 4 140
1987222N26266 1987 55 NA NA NOT_NAMED 1987-08-14 12:00:00 TS 30.8000 -86.8000 15 1010 hurdat_atl main 0 0 O_____________ hurdat_atl AL031987 30.8000 -86.8000 TD 15 1010 -1 3 140
1987222N26266 1987 55 NA NA NOT_NAMED 1987-08-14 15:00:00 TS 30.6999 -86.7001 main 0 0 P_____________ AL031987 30.6999 -86.7001 TD 15 1010 -1 3 139
1987222N26266 1987 55 NA NA NOT_NAMED 1987-08-14 18:00:00 TS 30.6000 -86.6000 15 1011 hurdat_atl main 0 0 O_____________ hurdat_atl AL031987 30.6000 -86.6000 TD 15 1011 -1 3 139
1987222N26266 1987 55 NA GM NOT_NAMED 1987-08-14 21:00:00 TS 30.4575 -86.4575 main 0 0 P_____________ AL031987 30.4575 -86.4575 TD 15 1011 -1 4 139
1987222N26266 1987 55 NA GM NOT_NAMED 1987-08-15 00:00:00 TS 30.3000 -86.3000 15 1011 hurdat_atl main 19 14 O_____________ hurdat_atl AL031987 30.3000 -86.3000 TD 15 1011 -1 4 141
1987222N26266 1987 55 NA GM NOT_NAMED 1987-08-15 03:00:00 TS 30.1425 -86.1575 main 24 22 P_____________ AL031987 30.1425 -86.1575 TD 15 1011 -1 4 139
1987222N26266 1987 55 NA GM NOT_NAMED 1987-08-15 06:00:00 TS 30.0000 -86.0000 15 1011 hurdat_atl main 24 22 O_____________ hurdat_atl AL031987 30.0000 -86.0000 TD 15 1011 -1 4 132
1987222N26266 1987 55 NA GM NOT_NAMED 1987-08-15 09:00:00 TS 29.8849 -85.8225 main 24 19 P_____________ AL031987 29.8849 -85.8225 TD 15 1011 -1 4 120
1987222N26266 1987 55 NA GM NOT_NAMED 1987-08-15 12:00:00 TS 29.8000 -85.6000 15 1012 hurdat_atl main 19 0 O_____________ hurdat_atl AL031987 29.8000 -85.6000 TD 15 1012 -1 5 109
1987222N26266 1987 55 NA GM NOT_NAMED 1987-08-15 15:00:00 TS 29.7276 -85.3074 main 0 0 P_____________ AL031987 29.7276 -85.3074 TD 15 1012 -1 5 101
1987222N26266 1987 55 NA GM NOT_NAMED 1987-08-15 18:00:00 TS 29.7000 -85.0000 15 1012 hurdat_atl main 0 0 O_____________ hurdat_atl AL031987 29.7000 -85.0000 TD 15 1012 -1 5 92
1987222N26266 1987 55 NA GM NOT_NAMED 1987-08-15 21:00:00 TS 29.7124 -84.7424 main 11 9 P_____________ AL031987 29.7124 -84.7424 TD 15 1012 -1 4 77
1987222N26266 1987 55 NA GM NOT_NAMED 1987-08-16 00:00:00 TS 29.8000 -84.5000 15 1013 hurdat_atl main 11 0 O_____________ hurdat_atl AL031987 29.8000 -84.5000 TD 15 1013 -1 5 58
1987222N26266 1987 55 NA GM NOT_NAMED 1987-08-16 03:00:00 TS 29.9850 -84.2352 main 11 0 P_____________ AL031987 29.9850 -84.2352 TD 15 1013 -1 6 47
1987222N26266 1987 55 NA NA NOT_NAMED 1987-08-16 06:00:00 TS 30.2000 -84.0000 15 1014 hurdat_atl main 0 0 O_____________ hurdat_atl AL031987 30.2000 -84.0000 TD 15 1014 -1 5 42
1987222N26266 1987 55 NA NA NOT_NAMED 1987-08-16 09:00:00 TS 30.3499 -83.8497 main 0 0 P_____________ AL031987 30.3499 -83.8497 TD 15 1014 -1 4 41
1987222N26266 1987 55 NA NA NOT_NAMED 1987-08-16 12:00:00 TS 30.5000 -83.7000 15 1014 hurdat_atl main 0 0 O_____________ hurdat_atl AL031987 30.5000 -83.7000 TD 15 1014 -1 5 46
1987222N26266 1987 55 NA NA NOT_NAMED 1987-08-16 15:00:00 TS 30.6851 -83.4501 main 0 0 P_____________ AL031987 30.6851 -83.4501 TD 12 1014 -1 6 47
1987222N26266 1987 55 NA NA NOT_NAMED 1987-08-16 18:00:00 TS 30.9000 -83.2000 10 1014 hurdat_atl main 0 0 O_____________ hurdat_atl AL031987 30.9000 -83.2000 TD 10 1014 -1 6 36
1987222N26266 1987 55 NA NA NOT_NAMED 1987-08-16 21:00:00 TS 31.1498 -83.0572 main 0 0 P_____________ AL031987 31.1498 -83.0572 TD 10 1014 -1 6 27
1987222N26266 1987 55 NA NA NOT_NAMED 1987-08-17 00:00:00 TS 31.4000 -82.9000 10 1015 hurdat_atl main 0 0 O_____________ hurdat_atl AL031987 31.4000 -82.9000 TD 10 1015 -1 6 38
1987222N26266 1987 55 NA NA NOT_NAMED 1987-08-17 03:00:00 TS 31.6128 -82.6354 main 0 0 P_____________ AL031987 31.6128 -82.6354 TD 10 1015 -1 6 52
1987222N26266 1987 55 NA NA NOT_NAMED 1987-08-17 06:00:00 TS 31.8000 -82.3000 10 1015 hurdat_atl main 0 O_____________ hurdat_atl AL031987 31.8000 -82.3000 TD 10 1015 -1 7 57

About IBTrACS Database

This database is a web-friendly format of International Best Track Archive for Climate Stewardship (IBTrACS), a global best track data archive curated by NOAA dating back to 1842.

Updated: 2021-10-08